Time;durP1;ratioP1;P1;durP2;ratioP2;P2;SDS_P1;SDS_P2;PMS_P1;PMS_P2;Temp;Humidity;BMP_temperature;BMP_pressure;BME280_temperature;BME280_humidity;BME280_pressure;Samples;Min_cycle;Max_cycle;Signal;HPM_P1;HPM_P2
2022/12/26 00:00:15;;;;;;;44.85;19.98;;;8.40;99.90;;;;;;5050069;28;20049;-65
2022/12/26 00:02:41;;;;;;;42.15;19.30;;;8.50;99.90;;;;;;5048252;28;20049;-64
2022/12/26 00:05:07;;;;;;;46.50;19.27;;;8.50;99.90;;;;;;5048894;28;20041;-65
2022/12/26 00:07:33;;;;;;;46.63;18.92;;;8.50;99.90;;;;;;5060288;28;20356;-64
2022/12/26 00:09:58;;;;;;;44.47;19.70;;;8.40;99.90;;;;;;5054494;28;20106;-64
2022/12/26 00:12:24;;;;;;;45.67;19.20;;;8.50;99.90;;;;;;5052361;28;20406;-64
2022/12/26 00:14:50;;;;;;;44.78;19.10;;;8.50;99.90;;;;;;5047915;28;20079;-64
2022/12/26 00:17:15;;;;;;;45.03;18.10;;;8.50;99.90;;;;;;5050347;28;20041;-67
2022/12/26 00:19:42;;;;;;;46.13;19.13;;;8.40;99.90;;;;;;5048931;28;20045;-65
2022/12/26 00:22:08;;;;;;;49.60;18.67;;;8.40;99.90;;;;;;5068030;28;20105;-64
2022/12/26 00:24:33;;;;;;;48.03;20.15;;;8.40;99.90;;;;;;5053308;28;20049;-65
2022/12/26 00:26:59;;;;;;;45.70;19.52;;;8.40;99.90;;;;;;5052117;28;20410;-66
2022/12/26 00:29:25;;;;;;;45.53;19.20;;;8.50;99.90;;;;;;5053545;28;20055;-65
2022/12/26 00:31:50;;;;;;;43.47;18.92;;;8.50;99.90;;;;;;5056114;28;20056;-64
2022/12/26 00:34:16;;;;;;;49.45;19.83;;;8.50;99.90;;;;;;5051669;28;20041;-64
2022/12/26 00:36:42;;;;;;;51.85;20.20;;;8.40;99.90;;;;;;5045021;28;20086;-64
2022/12/26 00:39:08;;;;;;;53.80;20.17;;;8.40;99.90;;;;;;5053302;28;20110;-64
2022/12/26 00:41:33;;;;;;;53.35;20.08;;;8.50;99.90;;;;;;5048147;28;20116;-64
2022/12/26 00:43:59;;;;;;;51.42;18.58;;;8.30;99.90;;;;;;5045789;28;20060;-65
2022/12/26 00:46:26;;;;;;;59.30;19.83;;;8.40;99.90;;;;;;5046716;28;20465;-64
2022/12/26 00:48:52;;;;;;;46.70;18.88;;;8.50;99.90;;;;;;5038159;28;20057;-66
2022/12/26 00:51:19;;;;;;;48.45;18.90;;;8.40;99.90;;;;;;5050886;28;20383;-65
2022/12/26 00:53:45;;;;;;;45.75;18.63;;;8.40;99.90;;;;;;5049214;28;20383;-64
2022/12/26 00:56:11;;;;;;;48.70;18.92;;;8.40;99.90;;;;;;5049025;28;20096;-65
2022/12/26 00:58:37;;;;;;;44.42;19.13;;;8.50;99.90;;;;;;5052165;28;20080;-64
2022/12/26 01:01:09;;;;;;;50.22;19.30;;;8.50;99.90;;;;;;5052553;28;20052;-65
2022/12/26 01:03:35;;;;;;;59.25;20.63;;;8.50;99.90;;;;;;5052655;28;20072;-74
2022/12/26 01:06:02;;;;;;;51.58;19.45;;;8.40;99.90;;;;;;5037036;28;20072;-64
2022/12/26 01:08:28;;;;;;;51.30;19.60;;;8.50;99.90;;;;;;5058212;28;20088;-67
2022/12/26 01:10:54;;;;;;;56.55;20.10;;;8.50;99.90;;;;;;5051890;28;20096;-66
2022/12/26 01:13:19;;;;;;;51.47;19.73;;;8.50;99.90;;;;;;5051587;28;20037;-64
2022/12/26 01:15:50;;;;;;;55.80;21.45;;;8.40;99.90;;;;;;5051957;28;20537;-64
2022/12/26 01:18:16;;;;;;;51.42;19.95;;;8.50;99.90;;;;;;5052874;28;20072;-69
2022/12/26 01:20:42;;;;;;;53.10;19.35;;;8.40;99.90;;;;;;5081828;28;20075;-64
2022/12/26 01:23:07;;;;;;;58.42;20.70;;;8.50;99.90;;;;;;5052145;28;20044;-64
2022/12/26 01:25:33;;;;;;;56.92;20.80;;;8.40;99.90;;;;;;5051936;28;20048;-67
2022/12/26 01:27:59;;;;;;;59.90;18.83;;;8.40;99.90;;;;;;5051970;28;20047;-64
2022/12/26 01:30:24;;;;;;;61.00;22.02;;;8.50;99.90;;;;;;5051363;28;20071;-66
2022/12/26 01:32:50;;;;;;;53.88;19.67;;;8.50;99.90;;;;;;5060397;28;20041;-65
2022/12/26 01:35:16;;;;;;;60.78;21.50;;;8.40;99.90;;;;;;5050389;28;20053;-66
2022/12/26 01:37:41;;;;;;;54.28;19.80;;;8.50;99.90;;;;;;5051356;28;20072;-67
2022/12/26 01:40:07;;;;;;;57.78;20.45;;;8.40;99.90;;;;;;5052282;28;20479;-68
2022/12/26 01:42:39;;;;;;;53.75;20.30;;;8.40;99.90;;;;;;5051981;28;20041;-65
2022/12/26 01:45:25;;;;;;;54.47;20.55;;;8.40;99.90;;;;;;5056882;28;20045;-65
2022/12/26 01:47:59;;;;;;;51.20;20.73;;;8.50;99.90;;;;;;5051265;28;20045;-66
2022/12/26 01:50:31;;;;;;;53.67;19.90;;;8.50;99.90;;;;;;5052236;28;20086;-64
2022/12/26 01:53:01;;;;;;;49.40;20.27;;;8.50;99.90;;;;;;5051247;28;20074;-63
2022/12/26 01:55:29;;;;;;;55.20;22.15;;;8.40;99.90;;;;;;5054190;28;20078;-64
2022/12/26 01:58:01;;;;;;;54.47;19.05;;;8.50;99.90;;;;;;5050634;28;20051;-67
2022/12/26 02:00:27;;;;;;;64.03;19.83;;;8.40;99.90;;;;;;5051519;28;20072;-64
2022/12/26 02:05:38;;;;;;;49.25;19.13;;;8.50;99.90;;;;;;5050650;28;20497;-65
2022/12/26 02:08:27;;;;;;;61.40;19.92;;;8.40;99.90;;;;;;5058925;28;20083;-65
2022/12/26 02:11:06;;;;;;;51.53;19.15;;;8.40;99.90;;;;;;5050941;28;20048;-64
2022/12/26 02:13:37;;;;;;;48.05;19.00;;;8.40;99.90;;;;;;5042598;28;20126;-66
2022/12/26 02:16:10;;;;;;;48.78;18.73;;;8.40;99.90;;;;;;5050750;28;20040;-68
2022/12/26 02:18:35;;;;;;;50.38;18.20;;;8.40;99.90;;;;;;5051041;28;20051;-64
2022/12/26 02:21:15;;;;;;;48.80;17.42;;;8.40;99.90;;;;;;5061416;28;20475;-65
2022/12/26 02:23:53;;;;;;;40.28;14.52;;;8.50;99.90;;;;;;5068495;28;20167;-64
2022/12/26 02:26:33;;;;;;;48.70;18.08;;;8.40;99.90;;;;;;5048549;28;20060;-65
2022/12/26 02:29:31;;;;;;;43.05;17.45;;;8.40;99.90;;;;;;5050264;28;20148;-65
2022/12/26 02:32:05;;;;;;;43.85;18.30;;;8.40;99.90;;;;;;5023943;28;20521;-64
2022/12/26 02:34:56;;;;;;;43.80;17.08;;;8.50;99.90;;;;;;5050884;28;20049;-64
2022/12/26 02:37:46;;;;;;;41.65;17.77;;;8.40;99.90;;;;;;5051121;28;20060;-64
2022/12/26 02:40:25;;;;;;;41.22;16.63;;;8.40;99.90;;;;;;5050712;28;20060;-65
2022/12/26 02:43:01;;;;;;;43.78;17.42;;;8.50;99.90;;;;;;5050380;28;20052;-73
2022/12/26 02:48:58;;;;;;;31.63;14.60;;;8.50;99.90;;;;;;5053670;28;20131;-64
2022/12/26 03:15:15;;;;;;;32.75;17.40;;;8.50;99.90;;;;;;5050794;28;20057;-65
2022/12/26 03:17:46;;;;;;;39.42;18.35;;;8.40;99.90;;;;;;5082955;28;20190;-65
2022/12/26 03:20:16;;;;;;;35.75;18.30;;;8.50;99.90;;;;;;5049634;28;20057;-65
2022/12/26 03:22:44;;;;;;;35.67;17.83;;;8.40;99.90;;;;;;5050718;28;20041;-65
2022/12/26 03:28:20;;;;;;;39.97;21.83;;;8.50;99.90;;;;;;5040588;28;20525;-64
2022/12/26 03:30:49;;;;;;;40.42;20.08;;;8.50;99.90;;;;;;5045286;28;20428;-64
2022/12/26 03:36:30;;;;;;;32.15;18.27;;;8.50;99.90;;;;;;5046684;28;20071;-65
2022/12/26 03:39:06;;;;;;;40.85;22.52;;;8.50;99.90;;;;;;5044018;28;20049;-65
2022/12/26 04:20:14;;;;;;;44.33;23.50;;;8.70;99.90;;;;;;5053872;28;20067;-68
2022/12/26 04:45:54;;;;;;;46.63;22.80;;;8.80;99.90;;;;;;5041938;28;20068;-70
2022/12/26 04:51:04;;;;;;;40.55;23.30;;;8.70;99.90;;;;;;5052961;28;20044;-65
2022/12/26 04:53:30;;;;;;;38.58;22.90;;;8.70;99.90;;;;;;5052215;28;20387;-67
2022/12/26 04:55:56;;;;;;;40.35;22.58;;;8.70;99.90;;;;;;5052125;28;20049;-65
2022/12/26 04:58:23;;;;;;;39.53;22.02;;;8.70;99.90;;;;;;5053187;28;20041;-63
2022/12/26 05:00:49;;;;;;;33.33;19.00;;;8.80;99.90;;;;;;5052843;28;20072;-64
2022/12/26 05:11:32;;;;;;;37.83;23.55;;;8.80;99.90;;;;;;5052443;28;20060;-67
2022/12/26 05:13:59;;;;;;;35.03;21.85;;;8.80;99.90;;;;;;5034871;28;20489;-66
2022/12/26 05:30:22;;;;;;;34.63;22.60;;;8.70;99.90;;;;;;5050122;28;20131;-65
2022/12/26 05:35:33;;;;;;;32.90;21.50;;;8.80;99.90;;;;;;5051640;28;20557;-63
2022/12/26 05:37:59;;;;;;;31.80;21.23;;;8.70;99.90;;;;;;5050343;28;20136;-64
2022/12/26 05:40:24;;;;;;;33.45;21.40;;;8.70;99.90;;;;;;5051485;28;20136;-63
2022/12/26 05:42:50;;;;;;;30.60;20.95;;;8.60;99.90;;;;;;5082752;28;20044;-63
2022/12/26 05:45:16;;;;;;;31.20;20.50;;;8.60;99.90;;;;;;5040707;28;20060;-72
2022/12/26 05:47:41;;;;;;;33.70;20.58;;;8.60;99.90;;;;;;5049254;28;20148;-65
2022/12/26 05:50:07;;;;;;;31.38;21.30;;;8.70;99.90;;;;;;5045560;28;20488;-64
2022/12/26 05:52:33;;;;;;;30.48;20.42;;;8.70;99.90;;;;;;5046070;28;20049;-64
2022/12/26 05:54:59;;;;;;;28.83;20.25;;;8.70;99.90;;;;;;5043610;28;20375;-64
2022/12/26 05:57:24;;;;;;;31.10;20.70;;;8.70;99.90;;;;;;5044200;28;20128;-64
2022/12/26 05:59:50;;;;;;;37.90;23.20;;;8.70;99.90;;;;;;5045340;28;20446;-67
2022/12/26 06:02:16;;;;;;;32.40;21.00;;;8.60;99.90;;;;;;5065762;28;20060;-65
2022/12/26 06:04:41;;;;;;;34.00;22.15;;;8.70;99.90;;;;;;5043588;28;20048;-65
2022/12/26 06:07:07;;;;;;;31.67;20.80;;;8.60;99.90;;;;;;5047230;28;20088;-65
2022/12/26 06:09:33;;;;;;;30.60;18.77;;;8.60;99.90;;;;;;5045503;28;20398;-65
2022/12/26 06:11:58;;;;;;;28.92;20.33;;;8.70;99.90;;;;;;5060375;28;20045;-65
2022/12/26 06:14:24;;;;;;;28.25;19.23;;;8.60;99.90;;;;;;5049347;28;20049;-68
2022/12/26 06:16:50;;;;;;;31.63;21.88;;;8.60;99.90;;;;;;5051563;28;20124;-65
2022/12/26 06:19:15;;;;;;;31.13;21.70;;;8.60;99.90;;;;;;5051097;28;20070;-64
2022/12/26 06:21:41;;;;;;;29.45;20.17;;;8.60;99.90;;;;;;5075589;28;20888;-64
2022/12/26 06:24:07;;;;;;;29.75;20.73;;;8.60;99.90;;;;;;5050298;28;20044;-64
2022/12/26 06:26:32;;;;;;;29.05;20.70;;;8.60;99.90;;;;;;5050911;28;20048;-66
2022/12/26 06:28:58;;;;;;;32.95;22.67;;;9.00;99.90;;;;;;5017078;28;20044;-64
2022/12/26 06:31:24;;;;;;;30.88;21.98;;;8.60;99.90;;;;;;5049912;28;20049;-65
2022/12/26 06:33:54;;;;;;;28.55;19.05;;;8.60;99.90;;;;;;5050475;28;20068;-64
2022/12/26 06:36:22;;;;;;;27.52;19.08;;;8.70;99.90;;;;;;5051131;28;20102;-64
2022/12/26 06:38:49;;;;;;;28.23;18.08;;;8.60;99.90;;;;;;5048948;28;20045;-65
2022/12/26 06:41:18;;;;;;;26.65;19.15;;;8.60;99.90;;;;;;5051357;28;20525;-64
2022/12/26 06:43:44;;;;;;;33.85;22.08;;;8.70;99.90;;;;;;5049165;28;20428;-69
2022/12/26 06:46:12;;;;;;;25.83;19.63;;;8.60;99.90;;;;;;5047104;28;20422;-64
2022/12/26 06:48:38;;;;;;;28.88;20.05;;;8.70;99.90;;;;;;5043771;28;20041;-65
2022/12/26 06:51:05;;;;;;;27.83;19.17;;;8.60;99.90;;;;;;5049816;28;20049;-64
2022/12/26 06:53:32;;;;;;;28.52;18.92;;;8.60;99.90;;;;;;5051404;28;20537;-64
2022/12/26 06:56:05;;;;;;;23.10;17.17;;;8.70;99.90;;;;;;5043003;28;20437;-67
2022/12/26 06:58:31;;;;;;;27.02;18.70;;;8.70;99.90;;;;;;5028894;28;20068;-64
2022/12/26 07:01:04;;;;;;;25.05;16.98;;;8.70;99.90;;;;;;5038438;28;20049;-64
2022/12/26 07:03:30;;;;;;;20.38;14.98;;;8.70;99.90;;;;;;5056624;28;20555;-65
2022/12/26 07:05:55;;;;;;;23.90;16.30;;;8.70;99.90;;;;;;5049683;28;20127;-64
2022/12/26 07:08:21;;;;;;;21.80;16.80;;;8.60;99.90;;;;;;5049010;28;20055;-66
2022/12/26 07:10:46;;;;;;;24.88;16.33;;;8.70;99.90;;;;;;5049820;28;20049;-64
2022/12/26 07:13:12;;;;;;;26.65;17.25;;;8.70;99.90;;;;;;5051627;28;20048;-64
2022/12/26 07:15:38;;;;;;;24.17;15.52;;;8.70;99.90;;;;;;5049607;28;20112;-65
2022/12/26 07:18:03;;;;;;;21.67;14.55;;;8.80;99.90;;;;;;5050120;28;20544;-65
2022/12/26 07:20:29;;;;;;;23.00;16.05;;;8.80;99.90;;;;;;5050222;28;20439;-73
2022/12/26 07:22:55;;;;;;;18.95;14.45;;;8.70;99.90;;;;;;5050317;28;20130;-64
2022/12/26 07:25:20;;;;;;;21.33;13.75;;;8.80;99.90;;;;;;5050084;28;20057;-63
2022/12/26 07:27:46;;;;;;;24.25;13.88;;;8.80;99.90;;;;;;5048894;28;20438;-63
2022/12/26 07:30:12;;;;;;;21.10;13.88;;;8.80;99.90;;;;;;5049312;28;20545;-65
2022/12/26 07:32:37;;;;;;;26.30;13.32;;;8.80;99.90;;;;;;5057255;28;21722;-64
2022/12/26 07:35:04;;;;;;;23.52;14.70;;;8.80;99.90;;;;;;5049718;28;20041;-64
2022/12/26 07:37:29;;;;;;;22.42;11.50;;;8.80;99.90;;;;;;5082235;28;20136;-63
2022/12/26 07:39:55;;;;;;;22.02;13.27;;;8.80;99.90;;;;;;5047961;28;20131;-69
2022/12/26 07:42:20;;;;;;;22.17;11.68;;;8.80;99.90;;;;;;5049325;28;20555;-64
2022/12/26 07:44:46;;;;;;;14.63;10.40;;;8.80;99.90;;;;;;5045059;28;20037;-64
2022/12/26 07:47:12;;;;;;;13.88;10.35;;;8.80;99.90;;;;;;5045932;28;20041;-65
2022/12/26 07:49:38;;;;;;;18.45;10.40;;;8.80;99.90;;;;;;5049869;28;20380;-64
2022/12/26 07:52:03;;;;;;;14.85;9.35;;;8.80;99.90;;;;;;5043916;28;20124;-67
2022/12/26 07:54:31;;;;;;;15.73;9.98;;;8.70;99.90;;;;;;5055417;28;20044;-64
2022/12/26 07:56:56;;;;;;;14.43;9.65;;;8.90;99.90;;;;;;5045381;28;20240;-64
2022/12/26 07:59:22;;;;;;;17.48;9.60;;;8.80;99.90;;;;;;5045599;28;20135;-64
2022/12/26 08:01:48;;;;;;;15.73;9.90;;;8.80;99.90;;;;;;5029985;28;20120;-65
2022/12/26 08:04:14;;;;;;;16.05;10.25;;;8.80;99.90;;;;;;5044090;28;20044;-64
2022/12/26 08:06:39;;;;;;;14.68;10.35;;;8.80;99.90;;;;;;5047107;28;20124;-64
2022/12/26 08:09:05;;;;;;;16.70;10.25;;;8.80;99.90;;;;;;5040819;28;20060;-64
2022/12/26 08:11:33;;;;;;;19.30;9.98;;;8.80;99.90;;;;;;5051947;28;20494;-64
2022/12/26 08:13:59;;;;;;;18.02;10.45;;;8.80;99.90;;;;;;5049159;28;20052;-63
2022/12/26 08:16:25;;;;;;;16.30;9.32;;;8.80;99.90;;;;;;5049514;28;20409;-64
2022/12/26 08:18:50;;;;;;;13.15;8.88;;;8.80;99.90;;;;;;5048001;28;20053;-64
2022/12/26 08:21:16;;;;;;;13.90;8.38;;;8.80;99.90;;;;;;5048747;28;20044;-64
2022/12/26 08:23:42;;;;;;;15.90;9.23;;;8.80;99.90;;;;;;5048863;28;20053;-64
2022/12/26 08:26:10;;;;;;;13.05;8.05;;;8.80;99.90;;;;;;5050052;28;20129;-64
2022/12/26 08:28:36;;;;;;;15.55;9.10;;;8.90;99.90;;;;;;5051679;28;20368;-64
2022/12/26 08:31:06;;;;;;;17.77;9.82;;;8.80;99.90;;;;;;5048913;28;20052;-64
2022/12/26 08:33:31;;;;;;;14.65;9.20;;;8.80;99.90;;;;;;5050842;28;20040;-64
2022/12/26 08:36:02;;;;;;;14.50;8.00;;;8.80;99.90;;;;;;5047819;28;20075;-63
2022/12/26 08:38:27;;;;;;;16.35;9.13;;;8.90;99.90;;;;;;5046636;28;20380;-68
2022/12/26 08:40:57;;;;;;;12.75;7.82;;;8.90;99.90;;;;;;5047493;28;20052;-64
2022/12/26 08:43:24;;;;;;;11.80;8.27;;;8.90;99.90;;;;;;5047412;28;20044;-64
2022/12/26 08:46:16;;;;;;;10.63;7.68;;;8.90;99.90;;;;;;5051522;28;20048;-64
2022/12/26 08:48:42;;;;;;;15.43;8.07;;;8.90;99.90;;;;;;5084534;28;20391;-72
2022/12/26 08:51:12;;;;;;;14.98;8.25;;;8.90;99.90;;;;;;5048289;28;20059;-64
2022/12/26 08:53:38;;;;;;;14.00;7.32;;;9.00;99.90;;;;;;5050207;28;20052;-64
2022/12/26 08:56:05;;;;;;;18.95;8.65;;;9.00;99.90;;;;;;5048633;28;20052;-65
2022/12/26 08:58:32;;;;;;;14.75;7.78;;;8.90;99.90;;;;;;5046842;28;20468;-66
2022/12/26 09:01:14;;;;;;;12.65;7.45;;;9.00;99.90;;;;;;5041368;28;20095;-65
2022/12/26 09:03:41;;;;;;;13.25;8.85;;;9.00;99.90;;;;;;5052390;28;20154;-64
2022/12/26 09:06:08;;;;;;;16.50;8.30;;;8.90;99.90;;;;;;5041774;28;20512;-64
2022/12/26 09:08:34;;;;;;;18.20;9.27;;;8.90;99.90;;;;;;5049806;28;20048;-64
2022/12/26 09:11:04;;;;;;;16.02;8.15;;;8.90;99.90;;;;;;5041647;28;20045;-70
2022/12/26 09:13:31;;;;;;;16.83;9.32;;;8.90;99.90;;;;;;5049075;28;20049;-64
2022/12/26 09:16:07;;;;;;;12.80;7.80;;;8.90;99.90;;;;;;5053646;28;20128;-64
2022/12/26 09:18:33;;;;;;;17.23;8.32;;;8.90;99.90;;;;;;5042016;28;20124;-64
2022/12/26 09:21:01;;;;;;;18.80;9.90;;;8.80;99.90;;;;;;5042863;28;20123;-66
2022/12/26 09:23:28;;;;;;;11.85;8.57;;;8.80;99.90;;;;;;5040746;28;20051;-63
2022/12/26 09:25:53;;;;;;;12.63;8.32;;;8.90;99.90;;;;;;5038927;28;20136;-67
2022/12/26 09:28:19;;;;;;;11.25;7.30;;;8.80;99.90;;;;;;5041632;28;20072;-65
2022/12/26 09:30:45;;;;;;;12.27;7.57;;;8.90;99.90;;;;;;5042959;28;20045;-63
2022/12/26 09:33:11;;;;;;;13.40;7.50;;;8.80;99.90;;;;;;5045912;28;20049;-66
2022/12/26 09:35:40;;;;;;;13.93;7.47;;;8.90;99.90;;;;;;5043219;28;20036;-63
2022/12/26 09:38:06;;;;;;;13.45;6.90;;;8.90;99.90;;;;;;5049690;28;20053;-64
2022/12/26 09:41:01;;;;;;;13.15;7.50;;;8.90;99.90;;;;;;5073794;28;20096;-64
2022/12/26 09:44:04;;;;;;;17.98;7.47;;;8.80;99.90;;;;;;5019216;28;20063;-64
2022/12/26 09:46:53;;;;;;;9.73;5.40;;;8.80;99.90;;;;;;5040083;28;20067;-65
2022/12/26 09:49:23;;;;;;;11.65;5.10;;;8.90;99.90;;;;;;5048973;28;20084;-65
2022/12/26 09:51:54;;;;;;;12.15;4.47;;;8.80;99.90;;;;;;5048091;28;20351;-64
2022/12/26 09:54:48;;;;;;;11.68;4.07;;;8.90;99.90;;;;;;5049724;28;20525;-63
2022/12/26 09:57:17;;;;;;;16.35;4.05;;;8.80;99.90;;;;;;5047444;28;20120;-64
2022/12/26 09:59:56;;;;;;;15.90;4.03;;;8.70;99.90;;;;;;5047058;28;20045;-62
2022/12/26 10:02:23;;;;;;;13.70;4.05;;;8.70;99.90;;;;;;5076468;28;20033;-64
2022/12/26 10:04:50;;;;;;;14.02;3.88;;;8.60;99.90;;;;;;5035378;28;20045;-67
2022/12/26 10:07:30;;;;;;;13.15;3.00;;;8.50;99.90;;;;;;5044621;28;20049;-63
2022/12/26 10:09:55;;;;;;;11.60;3.30;;;8.50;99.90;;;;;;5040908;28;20124;-64
2022/12/26 10:12:36;;;;;;;11.30;3.13;;;8.40;99.90;;;;;;5051846;28;20132;-63
2022/12/26 10:15:29;;;;;;;12.65;2.88;;;8.30;99.90;;;;;;5050390;28;20087;-63
2022/12/26 10:18:12;;;;;;;13.10;3.55;;;8.30;99.90;;;;;;5051201;28;20375;-70
2022/12/26 10:21:12;;;;;;;15.38;2.80;;;8.20;99.90;;;;;;5050912;28;20041;-62
2022/12/26 10:23:47;;;;;;;13.00;2.90;;;8.10;99.90;;;;;;5044103;28;20414;-63
2022/12/26 10:26:34;;;;;;;14.85;4.07;;;8.10;99.90;;;;;;5039908;28;20898;-63
2022/12/26 10:29:14;;;;;;;15.10;3.28;;;8.10;99.90;;;;;;5047232;28;20079;-63
2022/12/26 10:31:52;;;;;;;10.82;2.65;;;8.00;99.90;;;;;;5038713;28;20116;-63
2022/12/26 10:34:49;;;;;;;11.10;2.75;;;8.00;99.90;;;;;;5042367;28;20055;-63
2022/12/26 10:37:32;;;;;;;16.25;2.70;;;8.00;99.90;;;;;;5043325;28;20132;-63
2022/12/26 10:40:18;;;;;;;10.55;2.33;;;8.00;99.90;;;;;;5077685;28;20730;-70
2022/12/26 10:42:50;;;;;;;19.05;3.33;;;8.00;99.90;;;;;;5045290;28;20040;-66
2022/12/26 10:45:26;;;;;;;13.18;3.20;;;8.00;99.90;;;;;;5044204;28;20852;-64
2022/12/26 10:47:53;;;;;;;19.02;2.90;;;7.90;99.90;;;;;;5046770;28;20084;-69
2022/12/26 10:50:27;;;;;;;18.77;3.15;;;7.90;99.90;;;;;;5041060;28;20041;-64
2022/12/26 10:52:54;;;;;;;13.30;2.65;;;7.80;99.90;;;;;;5047241;28;20053;-64
2022/12/26 10:55:25;;;;;;;12.75;2.47;;;7.80;99.90;;;;;;5041689;28;20037;-65
2022/12/26 10:57:53;;;;;;;11.15;2.35;;;7.70;99.90;;;;;;5047169;28;20486;-64
2022/12/26 11:00:24;;;;;;;11.55;2.20;;;7.60;99.90;;;;;;5047744;28;20118;-63
2022/12/26 11:03:06;;;;;;;14.55;2.17;;;7.50;99.90;;;;;;5043276;28;20109;-64
2022/12/26 11:05:34;;;;;;;16.17;2.58;;;7.40;99.90;;;;;;5044168;28;20044;-64
2022/12/26 11:08:17;;;;;;;9.80;2.10;;;7.30;99.90;;;;;;5048248;28;20186;-71
2022/12/26 11:11:00;;;;;;;10.90;2.45;;;7.30;99.90;;;;;;5049359;28;20044;-67
2022/12/26 11:13:27;;;;;;;12.75;2.28;;;7.30;99.90;;;;;;5048265;28;20045;-64
2022/12/26 11:15:53;;;;;;;9.07;2.03;;;7.20;99.90;;;;;;5047606;28;20048;-63
2022/12/26 11:18:32;;;;;;;10.13;2.13;;;7.20;99.90;;;;;;5046182;28;20048;-63
2022/12/26 11:21:13;;;;;;;12.05;2.22;;;7.10;99.90;;;;;;5047008;28;20560;-63
2022/12/26 11:23:39;;;;;;;10.65;2.20;;;7.10;99.90;;;;;;5049058;28;20053;-63
2022/12/26 11:26:17;;;;;;;13.30;2.72;;;7.10;99.90;;;;;;5047950;28;20056;-65
2022/12/26 11:28:43;;;;;;;14.48;2.78;;;7.10;99.90;;;;;;5048074;28;20103;-63
2022/12/26 11:31:23;;;;;;;10.05;2.55;;;7.20;99.90;;;;;;5046827;28;20048;-63
2022/12/26 11:33:49;;;;;;;16.02;2.47;;;7.20;99.90;;;;;;5041963;28;20044;-63
2022/12/26 11:36:14;;;;;;;10.32;2.08;;;7.20;99.90;;;;;;5047366;28;20056;-63
2022/12/26 11:38:47;;;;;;;10.70;2.45;;;7.30;99.90;;;;;;5045637;28;20067;-64
2022/12/26 11:41:41;;;;;;;8.65;2.30;;;7.30;99.90;;;;;;5047931;28;20454;-65
2022/12/26 11:44:12;;;;;;;10.05;2.72;;;7.30;99.90;;;;;;5043632;28;20075;-71
2022/12/26 11:46:49;;;;;;;12.27;2.25;;;7.30;99.90;;;;;;5048178;28;20133;-63
2022/12/26 11:49:33;;;;;;;14.23;2.75;;;7.30;99.90;;;;;;5045332;28;20462;-66
2022/12/26 11:52:02;;;;;;;12.50;3.95;;;7.30;99.90;;;;;;5047982;28;20056;-65
2022/12/26 11:54:28;;;;;;;18.20;2.88;;;7.30;99.90;;;;;;5031478;28;20052;-63
2022/12/26 11:57:20;;;;;;;12.35;2.78;;;7.20;99.90;;;;;;5044925;28;20041;-63
2022/12/26 11:59:47;;;;;;;12.57;2.40;;;7.30;99.90;;;;;;5043372;28;20118;-65
2022/12/26 12:02:18;;;;;;;12.30;3.17;;;7.30;99.90;;;;;;5046277;28;20148;-64
2022/12/26 12:04:49;;;;;;;13.38;2.20;;;7.30;99.90;;;;;;5045801;28;20115;-63
2022/12/26 12:07:31;;;;;;;15.65;3.00;;;7.30;99.90;;;;;;5044858;28;20052;-64
2022/12/26 12:10:16;;;;;;;13.90;2.88;;;7.30;99.90;;;;;;5044280;28;20044;-63
2022/12/26 12:13:26;;;;;;;12.20;2.30;;;7.20;99.90;;;;;;5040970;28;20493;-64
2022/12/26 12:16:09;;;;;;;16.70;3.58;;;7.30;99.90;;;;;;5022140;28;20140;-64
2022/12/26 12:18:55;;;;;;;11.52;2.22;;;7.20;99.90;;;;;;5035098;28;20199;-66
2022/12/26 12:21:39;;;;;;;11.90;3.15;;;7.30;99.90;;;;;;5041281;28;20057;-63
2022/12/26 12:24:23;;;;;;;12.57;2.72;;;7.30;99.90;;;;;;5048603;28;20041;-64
2022/12/26 12:27:15;;;;;;;13.63;2.78;;;7.20;99.90;;;;;;5046879;28;20398;-67
2022/12/26 12:29:56;;;;;;;13.60;3.03;;;7.30;99.90;;;;;;5051405;28;20110;-62
2022/12/26 12:32:48;;;;;;;17.80;3.00;;;7.30;99.90;;;;;;5051468;28;20190;-64
2022/12/26 12:35:28;;;;;;;13.55;3.35;;;7.20;99.90;;;;;;5048446;28;20073;-70
2022/12/26 12:38:19;;;;;;;12.77;3.20;;;7.30;99.90;;;;;;5046996;28;20238;-63
2022/12/26 12:40:48;;;;;;;13.38;2.88;;;7.20;99.90;;;;;;5038702;28;20044;-62
2022/12/26 12:43:41;;;;;;;20.80;2.88;;;7.20;99.90;;;;;;5047500;28;20049;-70
2022/12/26 12:46:18;;;;;;;11.77;3.00;;;7.20;99.90;;;;;;5040435;28;20782;-64
2022/12/26 12:48:53;;;;;;;11.57;2.78;;;7.30;99.90;;;;;;5047320;28;20048;-64
2022/12/26 12:51:37;;;;;;;12.70;2.75;;;7.30;99.90;;;;;;5082340;28;20111;-62
2022/12/26 12:54:43;;;;;;;17.33;3.30;;;7.30;99.90;;;;;;5063765;28;20380;-64
2022/12/26 12:57:35;;;;;;;21.38;3.75;;;7.30;99.90;;;;;;5035704;28;20409;-62
2022/12/26 13:00:13;;;;;;;18.15;3.38;;;7.20;99.90;;;;;;5048177;28;20060;-67
2022/12/26 13:03:03;;;;;;;18.27;4.07;;;7.20;99.90;;;;;;5065814;28;20078;-64
2022/12/26 13:06:05;;;;;;;14.27;3.30;;;7.20;99.90;;;;;;5042202;28;20737;-63
2022/12/26 13:09:06;;;;;;;10.93;3.10;;;7.10;99.90;;;;;;5041534;28;20140;-62
2022/12/26 13:11:39;;;;;;;17.10;3.53;;;7.10;99.90;;;;;;5040515;28;20061;-67
2022/12/26 13:14:21;;;;;;;15.15;3.40;;;7.10;99.90;;;;;;5032767;28;20051;-66
2022/12/26 13:17:04;;;;;;;15.13;3.70;;;7.10;99.90;;;;;;5056584;28;20120;-64
2022/12/26 13:19:39;;;;;;;11.05;2.65;;;7.10;99.90;;;;;;5048300;28;20056;-63
2022/12/26 13:22:13;;;;;;;17.95;3.17;;;7.10;99.90;;;;;;5050321;28;20053;-62
2022/12/26 13:24:50;;;;;;;20.53;3.90;;;7.10;99.90;;;;;;5042792;28;20056;-64
2022/12/26 13:27:36;;;;;;;16.58;3.50;;;7.10;99.90;;;;;;5037089;28;20291;-62
2022/12/26 13:30:15;;;;;;;14.05;3.30;;;7.10;99.90;;;;;;5046227;28;20114;-62
2022/12/26 13:32:41;;;;;;;16.33;3.08;;;7.10;99.90;;;;;;5039743;28;20608;-67
2022/12/26 13:35:45;;;;;;;16.80;3.30;;;7.20;99.90;;;;;;5037345;28;20041;-63
2022/12/26 13:38:11;;;;;;;17.67;3.38;;;7.20;99.90;;;;;;5045424;28;20061;-62
2022/12/26 13:40:44;;;;;;;15.77;3.20;;;7.20;99.90;;;;;;5044389;28;20457;-62
2022/12/26 13:46:50;;;;;;;17.05;3.47;;;7.30;99.90;;;;;;5052072;28;20083;-64
2022/12/26 13:49:41;;;;;;;11.07;2.83;;;7.30;99.90;;;;;;5035026;28;20699;-63
2022/12/26 13:52:10;;;;;;;16.80;3.42;;;7.30;99.90;;;;;;5046263;28;20173;-62
2022/12/26 13:54:56;;;;;;;10.20;2.97;;;7.20;99.90;;;;;;5079376;28;20064;-65
2022/12/26 13:57:34;;;;;;;13.93;2.90;;;7.10;99.90;;;;;;5046192;28;20064;-63
2022/12/26 14:00:23;;;;;;;18.00;3.55;;;7.00;99.90;;;;;;5047339;28;20053;-67
2022/12/26 14:03:11;;;;;;;15.07;3.53;;;7.00;99.90;;;;;;5036468;28;20048;-63
2022/12/26 14:05:45;;;;;;;14.50;3.30;;;6.90;99.90;;;;;;5047069;28;20393;-64
2022/12/26 14:08:14;;;;;;;;;;;7.00;99.90;;;;;;5046577;28;20063;-64
2022/12/26 14:10:53;;;;;;;11.60;3.50;;;6.90;99.90;;;;;;5048922;28;19921;-64
2022/12/26 14:13:34;;;;;;;14.18;3.15;;;6.90;99.90;;;;;;5052206;28;20483;-65
2022/12/26 14:16:22;;;;;;;12.05;3.00;;;6.80;99.90;;;;;;5084094;28;20567;-65
2022/12/26 14:18:56;;;;;;;12.65;2.75;;;6.80;99.90;;;;;;5051554;28;20045;-64
2022/12/26 14:21:51;;;;;;;17.60;4.10;;;6.80;99.90;;;;;;5052084;28;20087;-64
2022/12/26 14:24:54;;;;;;;19.35;3.80;;;6.80;99.90;;;;;;5051204;28;20143;-64
2022/12/26 14:27:28;;;;;;;14.18;3.90;;;6.70;99.90;;;;;;5052142;28;20130;-64
2022/12/26 14:30:03;;;;;;;;;;;6.70;99.90;;;;;;5054453;28;20471;-64
2022/12/26 14:32:45;;;;;;;15.05;2.80;;;6.70;99.90;;;;;;5050232;28;19971;-65
2022/12/26 14:35:29;;;;;;;14.07;2.92;;;6.70;99.90;;;;;;5051539;28;20041;-66
2022/12/26 14:38:15;;;;;;;18.95;3.63;;;6.70;99.90;;;;;;5053179;28;20065;-66
2022/12/26 14:40:58;;;;;;;14.63;3.35;;;6.60;99.90;;;;;;5034288;28;20049;-64
2022/12/26 14:43:31;;;;;;;17.00;3.83;;;6.50;99.90;;;;;;5051335;28;20491;-65
2022/12/26 14:45:58;;;;;;;19.90;4.22;;;6.50;99.90;;;;;;5051939;28;20051;-65
2022/12/26 14:48:27;;;;;;;15.20;3.10;;;6.40;99.90;;;;;;5051367;28;20056;-64
2022/12/26 14:50:55;;;;;;;13.30;3.30;;;6.40;99.90;;;;;;5051219;28;20152;-65
2022/12/26 14:53:26;;;;;;;15.80;3.30;;;6.30;99.90;;;;;;5050443;28;20387;-65
2022/12/26 14:56:02;;;;;;;13.98;3.28;;;6.30;99.90;;;;;;5037481;28;20041;-65
2022/12/26 14:58:31;;;;;;;15.93;3.40;;;6.30;99.90;;;;;;5051457;28;20067;-65
2022/12/26 15:01:20;;;;;;;16.33;3.90;;;6.30;99.90;;;;;;5070979;28;20124;-65
2022/12/26 15:04:12;;;;;;;14.23;3.10;;;6.20;99.90;;;;;;5046884;28;20514;-64
2022/12/26 15:07:14;;;;;;;14.88;3.22;;;6.30;99.90;;;;;;5050923;28;20048;-64
2022/12/26 15:09:58;;;;;;;15.70;3.13;;;6.20;99.90;;;;;;5048584;28;20052;-65
2022/12/26 15:12:46;;;;;;;17.42;4.05;;;6.30;99.90;;;;;;5051307;28;20056;-65
2022/12/26 15:15:17;;;;;;;18.30;3.42;;;6.20;99.90;;;;;;5051198;28;20076;-64
2022/12/26 15:18:10;;;;;;;14.10;3.00;;;6.20;99.90;;;;;;5050443;28;20045;-65
2022/12/26 15:20:39;;;;;;;13.40;3.40;;;6.20;99.90;;;;;;5050068;28;20052;-64